Time;durP1;ratioP1;P1;durP2;ratioP2;P2;SDS_P1;SDS_P2;PMS_P1;PMS_P2;Temp;Humidity;BMP_temperature;BMP_pressure;BME280_temperature;BME280_humidity;BME280_pressure;Samples;Min_cycle;Max_cycle;Signal;HPM_P1;HPM_P2
2024/03/09 00:03:18;;;;;;;48.45;28.73;;;;;;;;;;10147809;28;20399;-86
2024/03/09 00:08:17;;;;;;;37.95;28.40;;;;;;;;;;10146773;28;20052;-86
2024/03/09 00:13:11;;;;;;;38.45;27.83;;;;;;;;;;10148223;28;20059;-86
2024/03/09 00:18:06;;;;;;;36.33;27.17;;;;;;;;;;10144699;28;20501;-85
2024/03/09 00:23:01;;;;;;;37.20;27.17;;;;;;;;;;10147692;28;20063;-85
2024/03/09 00:27:59;;;;;;;;;;;;;;;;;;10147393;28;20048;-83
2024/03/09 00:32:54;;;;;;;39.30;27.17;;;;;;;;;;10149227;28;20327;-83
2024/03/09 00:37:48;;;;;;;40.28;28.63;;;;;;;;;;10147047;28;20056;-84
2024/03/09 00:42:42;;;;;;;46.30;29.15;;;;;;;;;;10147076;28;20571;-84
2024/03/09 00:47:37;;;;;;;43.08;27.75;;;;;;;;;;10146447;28;20054;-86
2024/03/09 00:52:31;;;;;;;47.33;33.38;;;;;;;;;;10146773;28;20497;-83
2024/03/09 00:57:25;;;;;;;51.63;31.02;;;;;;;;;;10146272;28;20059;-84
2024/03/09 01:02:19;;;;;;;43.28;31.23;;;;;;;;;;10134624;28;20102;-84
2024/03/09 01:07:15;;;;;;;52.63;32.47;;;;;;;;;;10136300;28;20068;-84
2024/03/09 01:12:09;;;;;;;54.17;32.38;;;;;;;;;;10147372;28;20045;-83
2024/03/09 01:17:03;;;;;;;84.30;35.80;;;;;;;;;;10146782;28;20098;-82
2024/03/09 01:22:05;;;;;;;65.97;32.80;;;;;;;;;;10144256;28;20420;-82
2024/03/09 01:26:59;;;;;;;59.05;34.75;;;;;;;;;;10145031;28;20056;-83
2024/03/09 01:31:53;;;;;;;46.72;31.00;;;;;;;;;;10145581;28;20488;-83
2024/03/09 01:36:48;;;;;;;66.47;33.40;;;;;;;;;;10144053;28;20052;-83
2024/03/09 01:41:42;;;;;;;65.93;34.00;;;;;;;;;;10142355;28;20511;-83
2024/03/09 01:46:36;;;;;;;62.75;31.63;;;;;;;;;;10141444;28;20522;-82
2024/03/09 01:51:30;;;;;;;42.08;27.02;;;;;;;;;;10142552;28;20045;-82
2024/03/09 01:56:27;;;;;;;47.33;27.25;;;;;;;;;;10141881;28;20123;-82
2024/03/09 02:01:25;;;;;;;52.50;25.60;;;;;;;;;;10142032;28;20485;-82
2024/03/09 02:06:32;;;;;;;47.03;28.92;;;;;;;;;;10141902;28;20056;-82
2024/03/09 02:11:30;;;;;;;62.22;32.63;;;;;;;;;;10138551;28;20488;-83
2024/03/09 02:16:24;;;;;;;93.13;37.83;;;;;;;;;;10138332;28;20067;-84
2024/03/09 02:21:19;;;;;;;83.63;32.55;;;;;;;;;;10141652;28;20485;-83
2024/03/09 02:26:15;;;;;;;103.18;36.38;;;;;;;;;;10140229;28;20423;-83
2024/03/09 02:31:12;;;;;;;130.50;34.83;;;;;;;;;;10146210;28;20053;-82
2024/03/09 02:36:06;;;;;;;74.45;33.10;;;;;;;;;;10147601;28;20052;-81
2024/03/09 02:41:00;;;;;;;118.85;33.88;;;;;;;;;;10149072;28;20060;-80
2024/03/09 02:45:54;;;;;;;101.63;32.63;;;;;;;;;;10147953;28;20056;-83
2024/03/09 02:50:48;;;;;;;117.38;31.83;;;;;;;;;;10148376;28;20060;-81
2024/03/09 02:55:42;;;;;;;59.20;28.88;;;;;;;;;;10148193;28;20049;-81
2024/03/09 03:00:36;;;;;;;52.17;28.73;;;;;;;;;;10148630;28;20048;-81
2024/03/09 03:05:33;;;;;;;54.78;28.00;;;;;;;;;;10147146;28;20055;-82
2024/03/09 03:10:26;;;;;;;76.55;29.42;;;;;;;;;;10146900;28;20113;-83
2024/03/09 03:15:20;;;;;;;85.40;28.77;;;;;;;;;;10144918;28;20515;-83
2024/03/09 03:20:16;;;;;;;112.32;32.67;;;;;;;;;;10147793;28;20060;-83
2024/03/09 03:25:10;;;;;;;122.32;34.35;;;;;;;;;;10144233;28;20060;-84
2024/03/09 03:30:06;;;;;;;161.18;36.03;;;;;;;;;;10142123;28;20072;-82
2024/03/09 03:34:59;;;;;;;85.60;30.15;;;;;;;;;;10135585;28;20496;-81
2024/03/09 03:39:54;;;;;;;47.70;26.88;;;;;;;;;;10145269;28;20049;-81
2024/03/09 03:44:50;;;;;;;77.63;30.02;;;;;;;;;;10144659;28;20056;-81
2024/03/09 03:49:48;;;;;;;60.45;31.70;;;;;;;;;;10143096;28;20052;-81
2024/03/09 03:54:41;;;;;;;85.03;33.80;;;;;;;;;;10144808;28;20677;-81
2024/03/09 03:59:35;;;;;;;107.15;34.42;;;;;;;;;;10145425;28;20550;-82
2024/03/09 04:04:28;;;;;;;74.78;32.75;;;;;;;;;;10145254;28;20083;-82
2024/03/09 04:09:23;;;;;;;142.85;35.58;;;;;;;;;;10141846;28;20106;-84
2024/03/09 04:14:18;;;;;;;123.32;32.30;;;;;;;;;;10145351;28;20628;-83
2024/03/09 04:19:13;;;;;;;72.10;31.10;;;;;;;;;;10144388;28;20055;-82
2024/03/09 04:24:09;;;;;;;99.22;31.85;;;;;;;;;;10144698;28;20516;-83
2024/03/09 04:29:03;;;;;;;59.28;29.73;;;;;;;;;;10137635;28;20044;-83
2024/03/09 04:34:01;;;;;;;90.28;30.27;;;;;;;;;;10144350;28;20072;-83
2024/03/09 04:39:00;;;;;;;78.73;26.93;;;;;;;;;;10143493;28;20049;-84
2024/03/09 04:43:54;;;;;;;;;;;;;;;;;;10143604;28;20048;-83
2024/03/09 04:48:49;;;;;;;126.05;32.42;;;;;;;;;;10144782;28;19927;-85
2024/03/09 04:53:45;;;;;;;113.05;30.23;;;;;;;;;;10142980;28;20060;-83
2024/03/09 04:58:39;;;;;;;106.35;33.25;;;;;;;;;;10142332;28;20052;-83
2024/03/09 05:03:35;;;;;;;117.50;30.83;;;;;;;;;;10142567;28;20080;-83
2024/03/09 05:08:29;;;;;;;114.38;32.08;;;;;;;;;;10142425;28;20052;-82
2024/03/09 05:13:23;;;;;;;90.18;28.73;;;;;;;;;;10142586;28;20064;-83
2024/03/09 05:18:19;;;;;;;86.68;29.67;;;;;;;;;;10140934;28;20176;-84
2024/03/09 05:23:13;;;;;;;111.55;31.33;;;;;;;;;;10141833;28;20087;-85
2024/03/09 05:28:12;;;;;;;78.47;27.50;;;;;;;;;;10136607;28;20814;-85
2024/03/09 05:33:08;;;;;;;162.68;35.20;;;;;;;;;;10135403;28;20040;-83
2024/03/09 05:38:06;;;;;;;92.53;32.47;;;;;;;;;;10141265;28;20051;-82
2024/03/09 05:43:01;;;;;;;112.00;30.15;;;;;;;;;;10142109;28;20056;-82
2024/03/09 05:47:56;;;;;;;180.10;35.03;;;;;;;;;;10142046;28;20048;-83
2024/03/09 05:52:59;;;;;;;100.47;32.95;;;;;;;;;;10140446;28;20051;-82
2024/03/09 05:57:54;;;;;;;56.83;27.90;;;;;;;;;;10143879;28;20061;-83
2024/03/09 06:02:48;;;;;;;98.40;30.88;;;;;;;;;;10139180;28;20381;-83
2024/03/09 06:07:44;;;;;;;75.03;32.13;;;;;;;;;;10140463;28;20087;-82
2024/03/09 06:12:38;;;;;;;109.63;29.95;;;;;;;;;;10143397;28;20723;-83
2024/03/09 06:17:32;;;;;;;113.63;31.38;;;;;;;;;;10156957;28;20542;-82
2024/03/09 06:22:26;;;;;;;75.53;30.55;;;;;;;;;;10153642;28;20072;-82
2024/03/09 06:27:20;;;;;;;81.45;30.00;;;;;;;;;;10155455;28;20087;-78
2024/03/09 06:32:14;;;;;;;94.15;30.55;;;;;;;;;;10158179;28;20084;-80
2024/03/09 06:37:09;;;;;;;74.55;34.55;;;;;;;;;;10157036;28;20040;-80
2024/03/09 06:42:05;;;;;;;98.75;33.28;;;;;;;;;;10155687;28;20053;-82
2024/03/09 06:46:59;;;;;;;63.42;29.90;;;;;;;;;;10155498;28;20052;-81
2024/03/09 06:51:57;;;;;;;56.95;30.75;;;;;;;;;;10154036;28;20056;-81
2024/03/09 06:56:52;;;;;;;45.97;29.13;;;;;;;;;;10149632;28;20056;-81
2024/03/09 07:01:53;;;;;;;45.60;26.05;;;;;;;;;;10150165;28;20044;-81
2024/03/09 07:06:47;;;;;;;43.75;27.13;;;;;;;;;;10147918;28;20040;-81
2024/03/09 07:11:40;;;;;;;47.10;27.05;;;;;;;;;;10125908;28;20428;-81
2024/03/09 07:16:33;;;;;;;45.00;28.48;;;;;;;;;;10148301;28;20052;-80
2024/03/09 07:21:29;;;;;;;42.42;28.10;;;;;;;;;;10140109;28;20064;-81
2024/03/09 07:26:24;;;;;;;41.15;28.33;;;;;;;;;;10140269;28;20105;-81
2024/03/09 07:31:21;;;;;;;44.42;27.38;;;;;;;;;;10146874;28;20052;-81
2024/03/09 07:36:15;;;;;;;44.90;25.67;;;;;;;;;;10147404;28;20511;-82
2024/03/09 07:41:10;;;;;;;49.50;30.60;;;;;;;;;;10148433;28;20136;-81
2024/03/09 07:46:05;;;;;;;48.55;28.48;;;;;;;;;;10146937;28;20068;-81
2024/03/09 07:50:59;;;;;;;42.65;27.25;;;;;;;;;;10146854;28;20049;-81
2024/03/09 07:55:58;;;;;;;41.78;27.40;;;;;;;;;;10146897;28;20123;-81
2024/03/09 08:00:53;;;;;;;42.17;28.02;;;;;;;;;;10148136;28;20080;-81
2024/03/09 08:05:47;;;;;;;44.05;30.40;;;;;;;;;;10147651;28;20102;-80
2024/03/09 08:10:52;;;;;;;37.25;24.50;;;;;;;;;;10148015;28;20508;-80
2024/03/09 08:15:47;;;;;;;41.38;27.42;;;;;;;;;;10144591;28;20123;-79
2024/03/09 08:20:41;;;;;;;42.55;27.60;;;;;;;;;;10145591;28;20131;-79
2024/03/09 08:25:36;;;;;;;46.88;26.80;;;;;;;;;;10146225;28;20078;-80
2024/03/09 08:30:31;;;;;;;44.58;27.30;;;;;;;;;;10146051;28;20078;-83
2024/03/09 08:35:27;;;;;;;33.05;22.88;;;;;;;;;;10147694;28;20040;-84
2024/03/09 08:40:31;;;;;;;34.72;22.92;;;;;;;;;;10146084;28;20060;-82
2024/03/09 08:45:27;;;;;;;25.20;17.67;;;;;;;;;;10146325;28;20107;-83
2024/03/09 08:50:21;;;;;;;31.73;21.25;;;;;;;;;;10142553;28;20040;-82
2024/03/09 08:55:17;;;;;;;24.17;17.25;;;;;;;;;;10145255;28;20083;-83
2024/03/09 09:00:12;;;;;;;20.83;17.10;;;;;;;;;;10143045;28;20110;-82
2024/03/09 09:05:14;;;;;;;17.85;15.10;;;;;;;;;;10144295;28;21110;-81
2024/03/09 09:10:14;;;;;;;17.05;14.45;;;;;;;;;;10135770;28;20060;-81
2024/03/09 09:15:10;;;;;;;15.57;12.38;;;;;;;;;;10142769;28;20449;-80
2024/03/09 09:20:05;;;;;;;13.13;11.73;;;;;;;;;;10144962;28;20044;-80
2024/03/09 09:24:59;;;;;;;12.77;10.18;;;;;;;;;;10144603;28;20086;-79
2024/03/09 09:29:53;;;;;;;13.23;10.48;;;;;;;;;;10144479;28;20119;-79
2024/03/09 09:34:48;;;;;;;12.60;10.60;;;;;;;;;;10145094;28;20051;-79
2024/03/09 09:39:43;;;;;;;12.68;11.10;;;;;;;;;;10141375;28;20492;-80
2024/03/09 09:44:37;;;;;;;12.63;10.52;;;;;;;;;;10135422;28;20040;-80
2024/03/09 09:49:32;;;;;;;13.40;11.10;;;;;;;;;;10143810;28;20083;-80
2024/03/09 09:54:29;;;;;;;14.55;12.23;;;;;;;;;;10143857;28;20497;-80
2024/03/09 09:59:22;;;;;;;15.27;12.73;;;;;;;;;;10143276;28;20040;-77
2024/03/09 10:04:17;;;;;;;15.35;12.82;;;;;;;;;;10143350;28;20076;-77
2024/03/09 10:09:11;;;;;;;14.88;12.70;;;;;;;;;;10144218;28;20057;-77
2024/03/09 10:14:07;;;;;;;13.05;11.38;;;;;;;;;;10140627;28;20565;-76
2024/03/09 10:19:00;;;;;;;13.57;11.80;;;;;;;;;;10144013;28;20044;-77
2024/03/09 10:24:08;;;;;;;19.30;17.00;;;;;;;;;;10143543;28;20087;-77
2024/03/09 10:29:03;;;;;;;24.15;16.38;;;;;;;;;;10137900;28;20048;-76
2024/03/09 10:33:57;;;;;;;24.02;19.77;;;;;;;;;;10135809;28;20041;-75
2024/03/09 10:38:54;;;;;;;19.88;16.60;;;;;;;;;;10142996;28;20082;-76
2024/03/09 10:43:49;;;;;;;16.67;14.98;;;;;;;;;;10136475;28;20048;-77
2024/03/09 10:48:48;;;;;;;22.30;17.58;;;;;;;;;;10107255;28;20052;-77
2024/03/09 10:53:59;;;;;;;23.52;17.85;;;;;;;;;;10147002;28;20086;-76
2024/03/09 10:58:53;;;;;;;28.80;19.67;;;;;;;;;;10138236;28;20053;-76
2024/03/09 11:03:50;;;;;;;20.55;17.63;;;;;;;;;;10128376;28;20094;-76
2024/03/09 11:08:44;;;;;;;22.02;18.38;;;;;;;;;;10143333;28;20052;-76
2024/03/09 11:13:38;;;;;;;23.30;19.40;;;;;;;;;;10132203;28;20044;-76
2024/03/09 11:18:32;;;;;;;20.45;18.10;;;;;;;;;;10149623;28;21841;-77
2024/03/09 11:23:26;;;;;;;18.67;16.17;;;;;;;;;;10138303;28;20048;-77
2024/03/09 11:28:33;;;;;;;22.08;18.40;;;;;;;;;;10129130;28;20496;-76
2024/03/09 11:33:30;;;;;;;27.30;19.60;;;;;;;;;;10122902;28;20166;-77
2024/03/09 11:38:27;;;;;;;20.40;18.20;;;;;;;;;;10137009;28;20052;-75
2024/03/09 11:43:21;;;;;;;19.10;17.00;;;;;;;;;;10140700;28;20056;-75
2024/03/09 11:48:16;;;;;;;18.02;14.50;;;;;;;;;;10147566;28;20512;-74
2024/03/09 11:53:10;;;;;;;21.38;17.55;;;;;;;;;;10148244;28;20569;-74
2024/03/09 11:58:07;;;;;;;16.60;14.32;;;;;;;;;;10129820;28;20083;-74
2024/03/09 12:03:33;;;;;;;17.23;15.35;;;;;;;;;;10134167;28;20080;-74
2024/03/09 12:08:27;;;;;;;18.90;14.82;;;;;;;;;;10136385;28;20063;-74
2024/03/09 12:13:24;;;;;;;15.60;13.10;;;;;;;;;;10147534;28;20063;-75
2024/03/09 12:18:26;;;;;;;20.38;16.38;;;;;;;;;;10131119;28;20044;-76
2024/03/09 12:23:20;;;;;;;20.02;17.45;;;;;;;;;;10143737;28;20067;-74
2024/03/09 12:28:17;;;;;;;19.67;16.38;;;;;;;;;;10143545;28;20175;-74
2024/03/09 12:33:12;;;;;;;28.17;18.65;;;;;;;;;;10132518;28;20574;-73
2024/03/09 12:38:14;;;;;;;20.23;17.08;;;;;;;;;;10132027;28;20148;-75
2024/03/09 12:43:08;;;;;;;20.10;17.98;;;;;;;;;;10132339;28;20056;-78
2024/03/09 12:48:03;;;;;;;22.20;19.00;;;;;;;;;;10118313;28;20052;-73
2024/03/09 12:52:59;;;;;;;20.23;17.08;;;;;;;;;;10111243;28;20093;-74
2024/03/09 12:57:59;;;;;;;23.48;16.67;;;;;;;;;;10132196;28;20115;-75
2024/03/09 13:02:55;;;;;;;21.83;16.08;;;;;;;;;;10136946;28;20056;-74
2024/03/09 13:07:56;;;;;;;18.20;14.00;;;;;;;;;;10124615;28;20510;-73
2024/03/09 13:12:52;;;;;;;19.13;15.25;;;;;;;;;;10130406;28;20065;-74
2024/03/09 13:17:49;;;;;;;15.43;12.88;;;;;;;;;;10135127;28;20389;-74
2024/03/09 13:22:44;;;;;;;18.90;15.73;;;;;;;;;;10142562;28;20063;-74
2024/03/09 13:27:38;;;;;;;18.02;14.55;;;;;;;;;;10144991;28;20045;-73
2024/03/09 13:32:33;;;;;;;19.42;14.43;;;;;;;;;;10140135;28;20072;-74
2024/03/09 13:37:28;;;;;;;17.95;14.52;;;;;;;;;;10143412;28;20056;-73
2024/03/09 13:42:22;;;;;;;18.92;15.95;;;;;;;;;;10136414;28;20782;-74
2024/03/09 13:47:18;;;;;;;18.45;14.23;;;;;;;;;;10136811;28;20504;-73
2024/03/09 13:52:13;;;;;;;17.17;14.13;;;;;;;;;;10134099;28;20049;-74
2024/03/09 13:57:07;;;;;;;17.17;14.55;;;;;;;;;;10143176;28;20079;-74
2024/03/09 14:02:02;;;;;;;16.83;12.73;;;;;;;;;;10142189;28;20056;-74
2024/03/09 14:06:56;;;;;;;20.38;15.80;;;;;;;;;;10135118;28;20113;-74
2024/03/09 14:12:01;;;;;;;17.50;14.10;;;;;;;;;;10139490;28;20072;-73
2024/03/09 14:16:55;;;;;;;18.52;15.40;;;;;;;;;;10141314;28;20500;-76
2024/03/09 14:21:50;;;;;;;16.05;12.63;;;;;;;;;;10140715;28;20057;-76
2024/03/09 14:26:45;;;;;;;14.27;12.25;;;;;;;;;;10142920;28;20052;-75
2024/03/09 14:31:39;;;;;;;14.05;12.65;;;;;;;;;;10149269;28;20052;-72
2024/03/09 14:36:34;;;;;;;15.10;12.82;;;;;;;;;;10141941;28;20048;-74
2024/03/09 14:41:28;;;;;;;15.50;14.00;;;;;;;;;;10126133;28;20048;-73
2024/03/09 14:46:22;;;;;;;14.25;11.82;;;;;;;;;;10149831;28;20053;-77
2024/03/09 14:51:16;;;;;;;12.30;10.95;;;;;;;;;;10149415;28;20067;-78
2024/03/09 14:56:10;;;;;;;17.52;11.20;;;;;;;;;;10147295;28;20083;-74
2024/03/09 15:01:04;;;;;;;11.27;10.00;;;;;;;;;;10138424;28;20191;-74
2024/03/09 15:05:58;;;;;;;13.65;11.55;;;;;;;;;;10129525;28;20048;-78
2024/03/09 15:11:16;;;;;;;15.73;10.90;;;;;;;;;;10141271;28;20037;-74
2024/03/09 15:16:28;;;;;;;11.43;9.65;;;;;;;;;;10133332;28;20048;-77
2024/03/09 15:21:26;;;;;;;16.35;12.82;;;;;;;;;;10134968;28;20424;-76
2024/03/09 15:26:43;;;;;;;12.73;11.00;;;;;;;;;;10143302;28;20408;-76
2024/03/09 15:31:36;;;;;;;14.57;10.88;;;;;;;;;;10148382;28;20071;-76
2024/03/09 15:36:31;;;;;;;15.38;11.75;;;;;;;;;;10139988;28;20051;-75
2024/03/09 15:41:28;;;;;;;12.05;10.68;;;;;;;;;;10134136;28;20048;-75
2024/03/09 15:46:23;;;;;;;15.18;11.60;;;;;;;;;;10135565;28;20094;-75
2024/03/09 15:51:18;;;;;;;21.27;14.82;;;;;;;;;;10148914;28;20072;-80
2024/03/09 15:56:19;;;;;;;23.60;19.20;;;;;;;;;;10150500;28;20048;-76
2024/03/09 16:01:14;;;;;;;23.38;19.98;;;;;;;;;;10143535;28;20053;-70
2024/03/09 16:06:10;;;;;;;19.65;17.58;;;;;;;;;;10145701;28;20114;-77
2024/03/09 16:11:04;;;;;;;13.73;11.00;;;;;;;;;;10143282;28;20535;-78
2024/03/09 16:16:08;;;;;;;16.13;13.95;;;;;;;;;;10146380;28;20080;-74
2024/03/09 16:21:18;;;;;;;16.17;12.20;;;;;;;;;;10144942;28;20059;-75
2024/03/09 16:26:13;;;;;;;12.02;10.23;;;;;;;;;;10146586;28;20451;-73
2024/03/09 16:31:10;;;;;;;12.75;10.38;;;;;;;;;;10146253;28;20535;-73
2024/03/09 16:36:07;;;;;;;12.90;10.02;;;;;;;;;;10130325;28;20481;-74
2024/03/09 16:41:01;;;;;;;17.33;10.75;;;;;;;;;;10142118;28;20135;-73
2024/03/09 16:45:58;;;;;;;16.08;13.45;;;;;;;;;;10146350;28;20048;-74
2024/03/09 16:50:52;;;;;;;16.85;12.75;;;;;;;;;;10141983;28;20060;-74
2024/03/09 16:55:46;;;;;;;28.02;22.15;;;;;;;;;;10144409;28;20052;-74
2024/03/09 17:00:41;;;;;;;19.02;15.85;;;;;;;;;;10144339;28;20045;-74
2024/03/09 17:05:37;;;;;;;14.82;12.02;;;;;;;;;;10141018;28;20098;-72
2024/03/09 17:10:35;;;;;;;19.45;14.82;;;;;;;;;;10114953;28;20052;-72
2024/03/09 17:15:30;;;;;;;16.33;13.75;;;;;;;;;;10132953;28;20056;-75
2024/03/09 17:20:24;;;;;;;37.55;30.05;;;;;;;;;;10135553;28;20041;-74
2024/03/09 17:25:23;;;;;;;34.60;27.90;;;;;;;;;;10139917;28;20778;-73
2024/03/09 17:30:17;;;;;;;29.80;22.30;;;;;;;;;;10138864;28;20049;-72
2024/03/09 17:35:11;;;;;;;21.13;18.73;;;;;;;;;;10126711;28;20522;-73
2024/03/09 17:40:13;;;;;;;24.35;18.10;;;;;;;;;;10137184;28;20044;-74
2024/03/09 17:45:09;;;;;;;19.23;15.57;;;;;;;;;;10130813;28;20144;-72
2024/03/09 17:50:03;;;;;;;19.92;13.35;;;;;;;;;;10142574;28;20053;-72
2024/03/09 17:54:57;;;;;;;21.77;17.27;;;;;;;;;;10128485;28;20939;-72
2024/03/09 17:59:51;;;;;;;17.15;13.15;;;;;;;;;;10115633;28;20048;-73
2024/03/09 18:04:46;;;;;;;16.13;13.85;;;;;;;;;;10140595;28;20497;-71
2024/03/09 18:09:40;;;;;;;17.15;14.63;;;;;;;;;;10142054;28;20056;-76
2024/03/09 18:14:35;;;;;;;20.85;15.88;;;;;;;;;;10121698;28;20053;-72
2024/03/09 18:19:31;;;;;;;16.95;12.98;;;;;;;;;;10138874;28;20117;-72
2024/03/09 18:24:26;;;;;;;18.77;13.95;;;;;;;;;;10141359;28;20121;-71
2024/03/09 18:29:20;;;;;;;15.38;13.27;;;;;;;;;;10134493;28;20048;-72
2024/03/09 18:34:14;;;;;;;19.23;14.00;;;;;;;;;;10142754;28;20088;-72
2024/03/09 18:39:09;;;;;;;18.98;15.93;;;;;;;;;;10142467;28;20056;-72
2024/03/09 18:44:02;;;;;;;21.13;14.32;;;;;;;;;;10142448;28;20110;-72
2024/03/09 18:49:01;;;;;;;24.02;18.90;;;;;;;;;;10142466;28;20128;-72
2024/03/09 18:53:55;;;;;;;27.17;22.17;;;;;;;;;;10141988;28;20056;-72
2024/03/09 18:58:50;;;;;;;24.65;21.25;;;;;;;;;;10142425;28;20052;-72
2024/03/09 19:03:44;;;;;;;30.83;24.50;;;;;;;;;;10140623;28;20040;-72
2024/03/09 19:08:39;;;;;;;31.63;26.85;;;;;;;;;;10138217;28;20101;-72
2024/03/09 19:13:32;;;;;;;31.17;25.58;;;;;;;;;;10140968;28;20091;-72
2024/03/09 19:18:27;;;;;;;27.65;21.13;;;;;;;;;;10146252;28;20052;-72
2024/03/09 19:23:21;;;;;;;32.25;26.08;;;;;;;;;;10147236;28;20056;-72
2024/03/09 19:28:17;;;;;;;27.70;23.58;;;;;;;;;;10145237;28;20538;-73
2024/03/09 19:33:12;;;;;;;26.10;22.30;;;;;;;;;;10137605;28;20070;-72
2024/03/09 19:38:09;;;;;;;31.13;23.88;;;;;;;;;;10144701;28;20052;-72
2024/03/09 19:43:04;;;;;;;35.80;25.92;;;;;;;;;;10143773;28;20076;-72
2024/03/09 19:47:57;;;;;;;30.92;24.50;;;;;;;;;;10142023;28;20575;-73
2024/03/09 19:52:52;;;;;;;32.90;24.65;;;;;;;;;;10140706;28;20504;-72
2024/03/09 19:57:47;;;;;;;29.33;24.48;;;;;;;;;;10146286;28;20120;-72
2024/03/09 20:02:44;;;;;;;28.42;24.88;;;;;;;;;;10136019;28;20072;-73
2024/03/09 20:07:40;;;;;;;26.85;22.98;;;;;;;;;;10140730;28;20045;-72
2024/03/09 20:12:34;;;;;;;28.38;22.63;;;;;;;;;;10144315;28;20103;-72
2024/03/09 20:17:29;;;;;;;28.45;23.23;;;;;;;;;;10142696;28;20048;-72
2024/03/09 20:22:23;;;;;;;34.38;27.95;;;;;;;;;;10132674;28;20056;-74
2024/03/09 20:27:17;;;;;;;39.60;31.45;;;;;;;;;;10142749;28;20063;-75
2024/03/09 20:32:11;;;;;;;36.58;28.73;;;;;;;;;;10145387;28;20052;-72
2024/03/09 20:37:05;;;;;;;28.83;24.58;;;;;;;;;;10136587;28;20055;-73
2024/03/09 20:41:58;;;;;;;26.00;22.33;;;;;;;;;;10146716;28;20053;-74
2024/03/09 20:46:53;;;;;;;26.42;20.52;;;;;;;;;;10144353;28;20527;-73
2024/03/09 20:51:47;;;;;;;28.02;22.55;;;;;;;;;;10135509;28;20079;-73
2024/03/09 20:56:41;;;;;;;25.10;22.10;;;;;;;;;;10131116;28;20102;-77
2024/03/09 21:01:35;;;;;;;23.25;20.58;;;;;;;;;;10134136;28;20106;-73
2024/03/09 21:06:29;;;;;;;18.42;15.90;;;;;;;;;;10143193;28;20470;-72
2024/03/09 21:11:23;;;;;;;16.80;15.00;;;;;;;;;;10143723;28;20207;-73
2024/03/09 21:16:18;;;;;;;20.83;15.57;;;;;;;;;;10144343;28;20423;-76
2024/03/09 21:21:12;;;;;;;16.65;14.13;;;;;;;;;;10144521;28;20404;-74
2024/03/09 21:26:06;;;;;;;14.48;13.00;;;;;;;;;;10143623;28;20052;-73
2024/03/09 21:31:01;;;;;;;13.52;12.05;;;;;;;;;;10132663;28;20041;-72
2024/03/09 21:35:54;;;;;;;12.82;10.07;;;;;;;;;;10141616;28;20080;-72
2024/03/09 21:40:48;;;;;;;15.45;12.23;;;;;;;;;;10123009;28;20058;-74
2024/03/09 21:45:42;;;;;;;15.40;11.23;;;;;;;;;;10127119;28;20052;-73
2024/03/09 21:50:36;;;;;;;14.27;12.80;;;;;;;;;;10128870;28;20044;-73
2024/03/09 21:55:51;;;;;;;14.90;13.23;;;;;;;;;;10122321;28;20603;-73
2024/03/09 22:00:45;;;;;;;23.17;17.30;;;;;;;;;;10124819;28;20098;-73
2024/03/09 22:05:39;;;;;;;18.10;16.15;;;;;;;;;;10123483;28;20059;-74
2024/03/09 22:10:32;;;;;;;19.17;15.55;;;;;;;;;;10117336;28;20102;-73
2024/03/09 22:15:26;;;;;;;19.52;17.10;;;;;;;;;;10122414;28;20066;-73
2024/03/09 22:20:21;;;;;;;20.52;17.33;;;;;;;;;;10120751;28;20424;-74
2024/03/09 22:25:17;;;;;;;23.67;19.92;;;;;;;;;;10119711;28;20421;-73
2024/03/09 22:30:12;;;;;;;27.80;21.50;;;;;;;;;;10122739;28;20146;-74
2024/03/09 22:35:14;;;;;;;20.67;18.48;;;;;;;;;;10125029;28;20057;-74
2024/03/09 22:40:09;;;;;;;19.67;17.63;;;;;;;;;;10125891;28;20095;-74
2024/03/09 22:45:07;;;;;;;24.35;18.77;;;;;;;;;;10111678;28;20071;-73
2024/03/09 22:50:06;;;;;;;34.23;25.73;;;;;;;;;;10129396;28;20321;-74
2024/03/09 22:55:03;;;;;;;28.38;25.23;;;;;;;;;;10127242;28;20056;-74
2024/03/09 22:59:58;;;;;;;27.73;24.75;;;;;;;;;;10130040;28;20048;-74
2024/03/09 23:04:53;;;;;;;38.13;27.92;;;;;;;;;;10127678;28;20059;-73
2024/03/09 23:09:50;;;;;;;32.65;27.90;;;;;;;;;;10129376;28;20036;-73
2024/03/09 23:14:44;;;;;;;44.35;35.03;;;;;;;;;;10125786;28;20064;-74
2024/03/09 23:19:43;;;;;;;44.67;35.67;;;;;;;;;;10129321;28;20048;-74
2024/03/09 23:24:52;;;;;;;32.35;26.80;;;;;;;;;;10129967;28;20432;-73
2024/03/09 23:29:47;;;;;;;27.33;24.42;;;;;;;;;;10129161;28;20123;-73
2024/03/09 23:34:41;;;;;;;30.35;27.15;;;;;;;;;;10135225;28;20076;-72
2024/03/09 23:39:36;;;;;;;25.50;22.17;;;;;;;;;;10131875;28;20393;-72
2024/03/09 23:44:30;;;;;;;28.48;22.00;;;;;;;;;;10133554;28;20052;-73
2024/03/09 23:49:24;;;;;;;26.02;21.45;;;;;;;;;;10134088;28;20526;-73
2024/03/09 23:54:18;;;;;;;26.27;21.85;;;;;;;;;;10132609;28;20052;-73
2024/03/09 23:59:12;;;;;;;27.48;23.90;;;;;;;;;;10131721;28;20044;-72
